sensor_id;sensor_type;location;lat;lon;timestamp;P1;durP1;ratioP1;P2;durP2;ratioP2
84608;SDS011;74839;51.214;22.574;2024-01-15T00:00:42;24.53;;;13.90;;
84608;SDS011;74839;51.214;22.574;2024-01-15T00:03:08;21.93;;;11.90;;
84608;SDS011;74839;51.214;22.574;2024-01-15T00:05:34;24.53;;;14.67;;
84608;SDS011;74839;51.214;22.574;2024-01-15T00:08:00;27.17;;;14.50;;
84608;SDS011;74839;51.214;22.574;2024-01-15T00:10:26;21.27;;;13.83;;
84608;SDS011;74839;51.214;22.574;2024-01-15T00:12:52;23.77;;;15.57;;
84608;SDS011;74839;51.214;22.574;2024-01-15T00:15:18;25.20;;;13.70;;
84608;SDS011;74839;51.214;22.574;2024-01-15T00:17:45;23.03;;;14.73;;
84608;SDS011;74839;51.214;22.574;2024-01-15T00:20:11;23.10;;;13.87;;
84608;SDS011;74839;51.214;22.574;2024-01-15T00:22:37;27.17;;;14.80;;
84608;SDS011;74839;51.214;22.574;2024-01-15T00:25:03;26.30;;;14.43;;
84608;SDS011;74839;51.214;22.574;2024-01-15T00:27:29;21.03;;;13.67;;
84608;SDS011;74839;51.214;22.574;2024-01-15T00:29:55;23.60;;;13.33;;
84608;SDS011;74839;51.214;22.574;2024-01-15T00:32:21;26.80;;;13.93;;
84608;SDS011;74839;51.214;22.574;2024-01-15T00:34:47;20.20;;;13.03;;
84608;SDS011;74839;51.214;22.574;2024-01-15T00:37:13;24.83;;;13.83;;
84608;SDS011;74839;51.214;22.574;2024-01-15T00:39:39;27.43;;;13.57;;
84608;SDS011;74839;51.214;22.574;2024-01-15T00:42:05;24.07;;;13.50;;
84608;SDS011;74839;51.214;22.574;2024-01-15T00:44:32;25.60;;;13.43;;
84608;SDS011;74839;51.214;22.574;2024-01-15T00:46:58;25.90;;;14.40;;
84608;SDS011;74839;51.214;22.574;2024-01-15T00:49:24;25.80;;;14.17;;
84608;SDS011;74839;51.214;22.574;2024-01-15T00:51:50;28.43;;;15.03;;
84608;SDS011;74839;51.214;22.574;2024-01-15T00:54:16;24.57;;;14.37;;
84608;SDS011;74839;51.214;22.574;2024-01-15T00:56:42;25.23;;;14.47;;
84608;SDS011;74839;51.214;22.574;2024-01-15T00:59:08;26.83;;;15.20;;
84608;SDS011;74839;51.214;22.574;2024-01-15T01:01:35;26.47;;;14.50;;
84608;SDS011;74839;51.214;22.574;2024-01-15T01:04:03;25.70;;;13.87;;
84608;SDS011;74839;51.214;22.574;2024-01-15T01:06:29;23.37;;;13.70;;
84608;SDS011;74839;51.214;22.574;2024-01-15T01:08:55;27.63;;;14.43;;
84608;SDS011;74839;51.214;22.574;2024-01-15T01:11:21;25.50;;;13.63;;
84608;SDS011;74839;51.214;22.574;2024-01-15T01:13:47;22.80;;;12.93;;
84608;SDS011;74839;51.214;22.574;2024-01-15T01:16:13;24.27;;;13.77;;
84608;SDS011;74839;51.214;22.574;2024-01-15T01:18:39;25.93;;;14.87;;
84608;SDS011;74839;51.214;22.574;2024-01-15T01:21:05;23.73;;;13.83;;
84608;SDS011;74839;51.214;22.574;2024-01-15T01:23:31;24.10;;;13.50;;
84608;SDS011;74839;51.214;22.574;2024-01-15T01:25:57;27.20;;;14.67;;
84608;SDS011;74839;51.214;22.574;2024-01-15T01:28:23;26.03;;;14.03;;
84608;SDS011;74839;51.214;22.574;2024-01-15T01:30:49;28.77;;;14.40;;
84608;SDS011;74839;51.214;22.574;2024-01-15T01:33:15;29.85;;;17.60;;
84608;SDS011;74839;51.214;22.574;2024-01-15T01:35:41;28.20;;;14.77;;
84608;SDS011;74839;51.214;22.574;2024-01-15T01:38:08;23.60;;;13.77;;
84608;SDS011;74839;51.214;22.574;2024-01-15T01:40:34;26.37;;;13.73;;
84608;SDS011;74839;51.214;22.574;2024-01-15T01:43:00;22.60;;;13.67;;
84608;SDS011;74839;51.214;22.574;2024-01-15T01:45:28;24.63;;;13.90;;
84608;SDS011;74839;51.214;22.574;2024-01-15T01:47:54;22.60;;;13.30;;
84608;SDS011;74839;51.214;22.574;2024-01-15T01:50:20;25.73;;;14.17;;
84608;SDS011;74839;51.214;22.574;2024-01-15T01:52:46;23.67;;;13.80;;
84608;SDS011;74839;51.214;22.574;2024-01-15T01:55:12;22.20;;;12.60;;
84608;SDS011;74839;51.214;22.574;2024-01-15T01:57:38;24.47;;;14.07;;
84608;SDS011;74839;51.214;22.574;2024-01-15T02:00:04;23.60;;;13.03;;
84608;SDS011;74839;51.214;22.574;2024-01-15T02:02:31;23.70;;;13.97;;
84608;SDS011;74839;51.214;22.574;2024-01-15T02:04:58;21.53;;;12.63;;
84608;SDS011;74839;51.214;22.574;2024-01-15T02:07:23;22.23;;;13.17;;
84608;SDS011;74839;51.214;22.574;2024-01-15T02:09:49;27.73;;;13.80;;
84608;SDS011;74839;51.214;22.574;2024-01-15T02:12:16;24.03;;;12.00;;
84608;SDS011;74839;51.214;22.574;2024-01-15T02:14:42;20.80;;;12.20;;
84608;SDS011;74839;51.214;22.574;2024-01-15T02:17:08;21.80;;;12.77;;
84608;SDS011;74839;51.214;22.574;2024-01-15T02:19:34;20.03;;;12.00;;
84608;SDS011;74839;51.214;22.574;2024-01-15T02:22:00;19.77;;;12.23;;
84608;SDS011;74839;51.214;22.574;2024-01-15T02:24:26;20.03;;;12.10;;
84608;SDS011;74839;51.214;22.574;2024-01-15T02:26:52;20.80;;;11.37;;
84608;SDS011;74839;51.214;22.574;2024-01-15T02:29:18;24.05;;;15.68;;
84608;SDS011;74839;51.214;22.574;2024-01-15T02:31:44;21.53;;;12.77;;
84608;SDS011;74839;51.214;22.574;2024-01-15T02:34:10;22.17;;;12.03;;
84608;SDS011;74839;51.214;22.574;2024-01-15T02:36:36;19.67;;;10.93;;
84608;SDS011;74839;51.214;22.574;2024-01-15T02:39:02;21.50;;;12.23;;
84608;SDS011;74839;51.214;22.574;2024-01-15T02:41:28;18.43;;;11.67;;
84608;SDS011;74839;51.214;22.574;2024-01-15T02:43:54;20.97;;;11.97;;
84608;SDS011;74839;51.214;22.574;2024-01-15T02:46:20;22.80;;;11.73;;
84608;SDS011;74839;51.214;22.574;2024-01-15T02:48:46;20.33;;;10.70;;
84608;SDS011;74839;51.214;22.574;2024-01-15T02:51:12;19.23;;;11.20;;
84608;SDS011;74839;51.214;22.574;2024-01-15T02:53:38;22.87;;;11.13;;
84608;SDS011;74839;51.214;22.574;2024-01-15T02:56:04;16.90;;;10.23;;
84608;SDS011;74839;51.214;22.574;2024-01-15T02:58:30;19.00;;;10.87;;
84608;SDS011;74839;51.214;22.574;2024-01-15T03:00:56;18.30;;;10.90;;
84608;SDS011;74839;51.214;22.574;2024-01-15T03:03:22;20.40;;;10.00;;
84608;SDS011;74839;51.214;22.574;2024-01-15T03:05:48;17.93;;;10.63;;
84608;SDS011;74839;51.214;22.574;2024-01-15T03:08:14;18.77;;;9.87;;
84608;SDS011;74839;51.214;22.574;2024-01-15T03:10:40;18.50;;;9.63;;
84608;SDS011;74839;51.214;22.574;2024-01-15T03:13:06;18.63;;;9.97;;
84608;SDS011;74839;51.214;22.574;2024-01-15T03:15:32;16.63;;;9.37;;
84608;SDS011;74839;51.214;22.574;2024-01-15T03:17:58;18.80;;;10.40;;
84608;SDS011;74839;51.214;22.574;2024-01-15T03:20:24;16.43;;;9.40;;
84608;SDS011;74839;51.214;22.574;2024-01-15T03:22:50;23.27;;;10.03;;
84608;SDS011;74839;51.214;22.574;2024-01-15T03:25:16;16.77;;;9.57;;
84608;SDS011;74839;51.214;22.574;2024-01-15T03:27:42;18.10;;;10.17;;
84608;SDS011;74839;51.214;22.574;2024-01-15T03:30:09;14.13;;;8.43;;
84608;SDS011;74839;51.214;22.574;2024-01-15T03:32:35;19.55;;;10.70;;
84608;SDS011;74839;51.214;22.574;2024-01-15T03:35:01;18.40;;;10.07;;
84608;SDS011;74839;51.214;22.574;2024-01-15T03:37:27;16.10;;;9.07;;
84608;SDS011;74839;51.214;22.574;2024-01-15T03:39:53;15.87;;;9.50;;
84608;SDS011;74839;51.214;22.574;2024-01-15T03:42:19;17.00;;;9.37;;
84608;SDS011;74839;51.214;22.574;2024-01-15T03:44:45;17.48;;;11.48;;
84608;SDS011;74839;51.214;22.574;2024-01-15T03:47:11;17.00;;;10.60;;
84608;SDS011;74839;51.214;22.574;2024-01-15T03:49:37;16.20;;;9.13;;
84608;SDS011;74839;51.214;22.574;2024-01-15T03:52:03;17.37;;;9.30;;
84608;SDS011;74839;51.214;22.574;2024-01-15T03:54:29;13.90;;;8.97;;
84608;SDS011;74839;51.214;22.574;2024-01-15T03:56:55;17.77;;;8.60;;
84608;SDS011;74839;51.214;22.574;2024-01-15T03:59:21;15.13;;;8.07;;
84608;SDS011;74839;51.214;22.574;2024-01-15T04:01:50;13.50;;;7.97;;
84608;SDS011;74839;51.214;22.574;2024-01-15T04:04:17;14.07;;;8.23;;
84608;SDS011;74839;51.214;22.574;2024-01-15T04:06:43;15.03;;;8.77;;
84608;SDS011;74839;51.214;22.574;2024-01-15T04:09:09;14.53;;;8.13;;
84608;SDS011;74839;51.214;22.574;2024-01-15T04:11:35;16.73;;;8.70;;
84608;SDS011;74839;51.214;22.574;2024-01-15T04:14:01;15.73;;;7.83;;
84608;SDS011;74839;51.214;22.574;2024-01-15T04:16:27;12.73;;;7.83;;
84608;SDS011;74839;51.214;22.574;2024-01-15T04:18:53;14.00;;;8.07;;
84608;SDS011;74839;51.214;22.574;2024-01-15T04:21:19;14.90;;;8.20;;
84608;SDS011;74839;51.214;22.574;2024-01-15T04:23:45;11.27;;;6.80;;
84608;SDS011;74839;51.214;22.574;2024-01-15T04:26:11;13.37;;;7.13;;
84608;SDS011;74839;51.214;22.574;2024-01-15T04:28:37;12.27;;;7.67;;
84608;SDS011;74839;51.214;22.574;2024-01-15T04:31:03;8.17;;;6.33;;
84608;SDS011;74839;51.214;22.574;2024-01-15T04:33:29;13.60;;;7.30;;
84608;SDS011;74839;51.214;22.574;2024-01-15T04:35:55;9.83;;;6.77;;
84608;SDS011;74839;51.214;22.574;2024-01-15T04:38:21;12.83;;;6.57;;
84608;SDS011;74839;51.214;22.574;2024-01-15T04:40:47;10.13;;;6.87;;
84608;SDS011;74839;51.214;22.574;2024-01-15T04:43:13;11.17;;;6.67;;
84608;SDS011;74839;51.214;22.574;2024-01-15T04:45:39;10.27;;;7.00;;
84608;SDS011;74839;51.214;22.574;2024-01-15T04:48:05;9.90;;;6.40;;
84608;SDS011;74839;51.214;22.574;2024-01-15T04:50:31;10.30;;;6.23;;
84608;SDS011;74839;51.214;22.574;2024-01-15T04:52:57;12.03;;;6.60;;
84608;SDS011;74839;51.214;22.574;2024-01-15T04:55:23;11.93;;;6.33;;
84608;SDS011;74839;51.214;22.574;2024-01-15T04:57:49;9.93;;;6.27;;
84608;SDS011;74839;51.214;22.574;2024-01-15T05:00:15;9.33;;;6.03;;
84608;SDS011;74839;51.214;22.574;2024-01-15T05:02:41;11.80;;;5.77;;
84608;SDS011;74839;51.214;22.574;2024-01-15T05:05:07;8.97;;;5.67;;
84608;SDS011;74839;51.214;22.574;2024-01-15T05:07:33;9.93;;;6.13;;
84608;SDS011;74839;51.214;22.574;2024-01-15T05:09:59;8.73;;;6.03;;
84608;SDS011;74839;51.214;22.574;2024-01-15T05:12:25;11.40;;;6.30;;
84608;SDS011;74839;51.214;22.574;2024-01-15T05:14:51;12.37;;;6.40;;
84608;SDS011;74839;51.214;22.574;2024-01-15T05:17:17;11.63;;;6.33;;
84608;SDS011;74839;51.214;22.574;2024-01-15T05:19:43;10.40;;;6.83;;
84608;SDS011;74839;51.214;22.574;2024-01-15T05:22:09;12.77;;;6.87;;
84608;SDS011;74839;51.214;22.574;2024-01-15T05:24:35;11.97;;;6.80;;
84608;SDS011;74839;51.214;22.574;2024-01-15T05:27:01;11.80;;;7.60;;
84608;SDS011;74839;51.214;22.574;2024-01-15T05:29:27;11.90;;;7.57;;
84608;SDS011;74839;51.214;22.574;2024-01-15T05:31:53;15.13;;;7.90;;
84608;SDS011;74839;51.214;22.574;2024-01-15T05:34:20;10.30;;;7.13;;
84608;SDS011;74839;51.214;22.574;2024-01-15T05:36:45;12.13;;;7.10;;
84608;SDS011;74839;51.214;22.574;2024-01-15T05:39:12;11.17;;;6.63;;
84608;SDS011;74839;51.214;22.574;2024-01-15T05:41:38;13.48;;;7.40;;
84608;SDS011;74839;51.214;22.574;2024-01-15T05:44:04;10.70;;;6.80;;
84608;SDS011;74839;51.214;22.574;2024-01-15T05:46:30;11.60;;;6.80;;
84608;SDS011;74839;51.214;22.574;2024-01-15T05:48:56;9.40;;;6.03;;
84608;SDS011;74839;51.214;22.574;2024-01-15T05:51:22;10.93;;;6.67;;
84608;SDS011;74839;51.214;22.574;2024-01-15T05:53:48;12.57;;;6.03;;
84608;SDS011;74839;51.214;22.574;2024-01-15T05:56:14;11.07;;;6.33;;
84608;SDS011;74839;51.214;22.574;2024-01-15T05:58:41;8.13;;;5.20;;
84608;SDS011;74839;51.214;22.574;2024-01-15T06:01:06;8.30;;;5.67;;
84608;SDS011;74839;51.214;22.574;2024-01-15T06:03:32;9.57;;;4.97;;
84608;SDS011;74839;51.214;22.574;2024-01-15T06:05:58;9.03;;;5.20;;
84608;SDS011;74839;51.214;22.574;2024-01-15T06:08:24;9.80;;;5.10;;
84608;SDS011;74839;51.214;22.574;2024-01-15T06:10:52;8.37;;;5.63;;
84608;SDS011;74839;51.214;22.574;2024-01-15T06:13:19;12.17;;;5.87;;
84608;SDS011;74839;51.214;22.574;2024-01-15T06:15:45;8.80;;;5.80;;
84608;SDS011;74839;51.214;22.574;2024-01-15T06:18:11;7.93;;;5.27;;
84608;SDS011;74839;51.214;22.574;2024-01-15T06:20:37;7.67;;;5.43;;
84608;SDS011;74839;51.214;22.574;2024-01-15T06:23:03;8.63;;;5.97;;
84608;SDS011;74839;51.214;22.574;2024-01-15T06:25:29;8.83;;;5.37;;
84608;SDS011;74839;51.214;22.574;2024-01-15T06:27:55;8.30;;;5.40;;
84608;SDS011;74839;51.214;22.574;2024-01-15T06:30:21;7.70;;;4.73;;
84608;SDS011;74839;51.214;22.574;2024-01-15T06:32:48;11.40;;;5.47;;
84608;SDS011;74839;51.214;22.574;2024-01-15T06:35:15;10.90;;;5.60;;
84608;SDS011;74839;51.214;22.574;2024-01-15T06:37:41;8.43;;;5.30;;
84608;SDS011;74839;51.214;22.574;2024-01-15T06:40:07;8.07;;;5.60;;
84608;SDS011;74839;51.214;22.574;2024-01-15T06:42:34;13.80;;;5.63;;
84608;SDS011;74839;51.214;22.574;2024-01-15T06:45:00;7.67;;;5.50;;
84608;SDS011;74839;51.214;22.574;2024-01-15T06:47:26;13.40;;;5.37;;
84608;SDS011;74839;51.214;22.574;2024-01-15T06:49:52;6.40;;;4.60;;
84608;SDS011;74839;51.214;22.574;2024-01-15T06:52:18;9.47;;;5.70;;
84608;SDS011;74839;51.214;22.574;2024-01-15T06:54:44;9.30;;;4.87;;
84608;SDS011;74839;51.214;22.574;2024-01-15T06:57:10;12.10;;;5.70;;
84608;SDS011;74839;51.214;22.574;2024-01-15T06:59:36;7.80;;;4.37;;
84608;SDS011;74839;51.214;22.574;2024-01-15T07:02:02;10.97;;;5.53;;
84608;SDS011;74839;51.214;22.574;2024-01-15T07:04:28;7.13;;;5.10;;
84608;SDS011;74839;51.214;22.574;2024-01-15T07:06:54;8.90;;;4.63;;
84608;SDS011;74839;51.214;22.574;2024-01-15T07:09:20;7.77;;;4.77;;
84608;SDS011;74839;51.214;22.574;2024-01-15T07:11:46;6.97;;;4.33;;
84608;SDS011;74839;51.214;22.574;2024-01-15T07:14:12;8.07;;;4.40;;
84608;SDS011;74839;51.214;22.574;2024-01-15T07:16:39;8.73;;;4.40;;
84608;SDS011;74839;51.214;22.574;2024-01-15T07:19:05;8.83;;;5.07;;
84608;SDS011;74839;51.214;22.574;2024-01-15T07:21:32;8.40;;;5.00;;
84608;SDS011;74839;51.214;22.574;2024-01-15T07:23:58;12.63;;;7.37;;
84608;SDS011;74839;51.214;22.574;2024-01-15T07:26:24;8.30;;;5.17;;
84608;SDS011;74839;51.214;22.574;2024-01-15T07:28:51;8.17;;;5.10;;
84608;SDS011;74839;51.214;22.574;2024-01-15T07:31:17;7.17;;;4.43;;
84608;SDS011;74839;51.214;22.574;2024-01-15T07:33:43;7.07;;;4.17;;
84608;SDS011;74839;51.214;22.574;2024-01-15T07:36:09;6.63;;;4.23;;
84608;SDS011;74839;51.214;22.574;2024-01-15T07:38:35;11.50;;;4.90;;
84608;SDS011;74839;51.214;22.574;2024-01-15T07:41:01;6.53;;;4.17;;
84608;SDS011;74839;51.214;22.574;2024-01-15T07:43:27;7.37;;;4.97;;
84608;SDS011;74839;51.214;22.574;2024-01-15T07:45:53;9.00;;;4.90;;
84608;SDS011;74839;51.214;22.574;2024-01-15T07:48:19;9.17;;;5.07;;
84608;SDS011;74839;51.214;22.574;2024-01-15T07:50:45;10.73;;;6.37;;
84608;SDS011;74839;51.214;22.574;2024-01-15T07:53:11;12.13;;;6.60;;
84608;SDS011;74839;51.214;22.574;2024-01-15T07:55:37;12.47;;;5.77;;
84608;SDS011;74839;51.214;22.574;2024-01-15T07:58:03;10.90;;;5.77;;
84608;SDS011;74839;51.214;22.574;2024-01-15T08:00:29;11.07;;;6.40;;
84608;SDS011;74839;51.214;22.574;2024-01-15T08:02:55;8.77;;;5.00;;
84608;SDS011;74839;51.214;22.574;2024-01-15T08:05:21;9.97;;;6.10;;
84608;SDS011;74839;51.214;22.574;2024-01-15T08:07:47;8.73;;;5.13;;
84608;SDS011;74839;51.214;22.574;2024-01-15T08:10:14;9.53;;;5.53;;
84608;SDS011;74839;51.214;22.574;2024-01-15T08:12:40;9.27;;;6.03;;
84608;SDS011;74839;51.214;22.574;2024-01-15T08:15:06;11.30;;;6.77;;
84608;SDS011;74839;51.214;22.574;2024-01-15T08:17:32;14.23;;;9.07;;
84608;SDS011;74839;51.214;22.574;2024-01-15T08:19:58;13.67;;;7.37;;
84608;SDS011;74839;51.214;22.574;2024-01-15T08:22:25;12.40;;;8.03;;
84608;SDS011;74839;51.214;22.574;2024-01-15T08:24:51;13.13;;;8.03;;
84608;SDS011;74839;51.214;22.574;2024-01-15T08:27:18;9.93;;;6.43;;
84608;SDS011;74839;51.214;22.574;2024-01-15T08:29:45;11.37;;;6.47;;
84608;SDS011;74839;51.214;22.574;2024-01-15T08:32:11;11.97;;;6.37;;
84608;SDS011;74839;51.214;22.574;2024-01-15T08:34:40;11.40;;;7.03;;
84608;SDS011;74839;51.214;22.574;2024-01-15T08:37:06;11.90;;;6.53;;
84608;SDS011;74839;51.214;22.574;2024-01-15T08:39:32;14.07;;;7.70;;
84608;SDS011;74839;51.214;22.574;2024-01-15T08:41:58;12.87;;;6.53;;
84608;SDS011;74839;51.214;22.574;2024-01-15T08:44:24;14.77;;;7.67;;
84608;SDS011;74839;51.214;22.574;2024-01-15T08:46:50;14.70;;;7.57;;
84608;SDS011;74839;51.214;22.574;2024-01-15T08:49:16;15.20;;;8.30;;
84608;SDS011;74839;51.214;22.574;2024-01-15T08:51:42;16.00;;;7.63;;
84608;SDS011;74839;51.214;22.574;2024-01-15T08:54:08;11.80;;;7.27;;
84608;SDS011;74839;51.214;22.574;2024-01-15T08:56:35;13.93;;;8.23;;
84608;SDS011;74839;51.214;22.574;2024-01-15T08:59:01;15.87;;;8.87;;
84608;SDS011;74839;51.214;22.574;2024-01-15T09:01:27;12.33;;;7.43;;
84608;SDS011;74839;51.214;22.574;2024-01-15T09:03:53;12.83;;;8.00;;
84608;SDS011;74839;51.214;22.574;2024-01-15T09:06:19;14.50;;;8.77;;
84608;SDS011;74839;51.214;22.574;2024-01-15T09:08:45;13.40;;;7.90;;
84608;SDS011;74839;51.214;22.574;2024-01-15T09:11:11;18.40;;;9.97;;
84608;SDS011;74839;51.214;22.574;2024-01-15T09:13:37;11.13;;;7.13;;
84608;SDS011;74839;51.214;22.574;2024-01-15T09:16:04;11.93;;;7.43;;
84608;SDS011;74839;51.214;22.574;2024-01-15T09:18:30;9.77;;;7.13;;
84608;SDS011;74839;51.214;22.574;2024-01-15T09:20:57;10.07;;;6.63;;
84608;SDS011;74839;51.214;22.574;2024-01-15T09:23:23;14.73;;;8.30;;
84608;SDS011;74839;51.214;22.574;2024-01-15T09:25:49;12.23;;;7.20;;
84608;SDS011;74839;51.214;22.574;2024-01-15T09:28:15;13.93;;;7.83;;
84608;SDS011;74839;51.214;22.574;2024-01-15T09:30:41;9.37;;;5.83;;
84608;SDS011;74839;51.214;22.574;2024-01-15T09:33:07;10.20;;;6.43;;
84608;SDS011;74839;51.214;22.574;2024-01-15T09:35:33;11.00;;;6.40;;
84608;SDS011;74839;51.214;22.574;2024-01-15T09:37:59;9.63;;;6.50;;
84608;SDS011;74839;51.214;22.574;2024-01-15T09:40:25;11.30;;;6.97;;
84608;SDS011;74839;51.214;22.574;2024-01-15T09:42:54;12.33;;;7.47;;
84608;SDS011;74839;51.214;22.574;2024-01-15T09:45:20;11.73;;;7.70;;
84608;SDS011;74839;51.214;22.574;2024-01-15T09:47:46;10.40;;;6.73;;
84608;SDS011;74839;51.214;22.574;2024-01-15T09:50:12;13.27;;;7.30;;
84608;SDS011;74839;51.214;22.574;2024-01-15T09:52:40;12.77;;;7.57;;
84608;SDS011;74839;51.214;22.574;2024-01-15T09:55:06;11.87;;;8.17;;
84608;SDS011;74839;51.214;22.574;2024-01-15T09:57:34;10.17;;;6.93;;
84608;SDS011;74839;51.214;22.574;2024-01-15T10:00:01;12.07;;;7.57;;
84608;SDS011;74839;51.214;22.574;2024-01-15T10:02:29;12.93;;;7.43;;
84608;SDS011;74839;51.214;22.574;2024-01-15T10:04:55;10.97;;;7.10;;
84608;SDS011;74839;51.214;22.574;2024-01-15T10:07:21;11.53;;;6.90;;
84608;SDS011;74839;51.214;22.574;2024-01-15T10:09:47;14.70;;;7.77;;
84608;SDS011;74839;51.214;22.574;2024-01-15T10:12:13;12.77;;;7.10;;
84608;SDS011;74839;51.214;22.574;2024-01-15T10:14:40;13.40;;;6.33;;
84608;SDS011;74839;51.214;22.574;2024-01-15T10:17:13;11.43;;;6.10;;
84608;SDS011;74839;51.214;22.574;2024-01-15T10:19:40;12.67;;;6.77;;
84608;SDS011;74839;51.214;22.574;2024-01-15T10:22:07;11.03;;;5.63;;
84608;SDS011;74839;51.214;22.574;2024-01-15T10:24:34;9.00;;;6.80;;
84608;SDS011;74839;51.214;22.574;2024-01-15T10:27:07;11.43;;;6.97;;
84608;SDS011;74839;51.214;22.574;2024-01-15T10:29:34;13.47;;;8.10;;
84608;SDS011;74839;51.214;22.574;2024-01-15T10:32:00;15.03;;;7.30;;
84608;SDS011;74839;51.214;22.574;2024-01-15T10:34:26;9.90;;;6.07;;
84608;SDS011;74839;51.214;22.574;2024-01-15T10:36:52;16.43;;;9.23;;
84608;SDS011;74839;51.214;22.574;2024-01-15T10:39:20;16.07;;;9.43;;
84608;SDS011;74839;51.214;22.574;2024-01-15T10:41:46;12.90;;;7.63;;
84608;SDS011;74839;51.214;22.574;2024-01-15T10:44:12;12.37;;;6.90;;
84608;SDS011;74839;51.214;22.574;2024-01-15T10:46:38;11.40;;;6.80;;
84608;SDS011;74839;51.214;22.574;2024-01-15T10:49:05;11.93;;;6.97;;
84608;SDS011;74839;51.214;22.574;2024-01-15T10:51:32;11.60;;;7.23;;
84608;SDS011;74839;51.214;22.574;2024-01-15T10:53:58;13.70;;;7.40;;
84608;SDS011;74839;51.214;22.574;2024-01-15T10:56:25;13.10;;;7.10;;
84608;SDS011;74839;51.214;22.574;2024-01-15T10:58:51;10.97;;;6.93;;
84608;SDS011;74839;51.214;22.574;2024-01-15T11:01:17;16.07;;;6.20;;
84608;SDS011;74839;51.214;22.574;2024-01-15T11:03:44;10.57;;;6.27;;
84608;SDS011;74839;51.214;22.574;2024-01-15T11:06:17;14.17;;;7.03;;
84608;SDS011;74839;51.214;22.574;2024-01-15T11:08:48;9.90;;;6.43;;
84608;SDS011;74839;51.214;22.574;2024-01-15T11:11:17;14.63;;;6.60;;
84608;SDS011;74839;51.214;22.574;2024-01-15T11:13:43;13.43;;;6.87;;
84608;SDS011;74839;51.214;22.574;2024-01-15T11:16:15;11.47;;;6.90;;
84608;SDS011;74839;51.214;22.574;2024-01-15T11:18:42;14.47;;;7.00;;
84608;SDS011;74839;51.214;22.574;2024-01-15T11:23:44;11.33;;;5.63;;
84608;SDS011;74839;51.214;22.574;2024-01-15T11:28:56;17.77;;;8.97;;
84608;SDS011;74839;51.214;22.574;2024-01-15T11:31:28;14.77;;;8.00;;
84608;SDS011;74839;51.214;22.574;2024-01-15T11:33:54;16.07;;;8.43;;
84608;SDS011;74839;51.214;22.574;2024-01-15T11:36:21;12.40;;;7.97;;
84608;SDS011;74839;51.214;22.574;2024-01-15T11:38:47;10.73;;;7.17;;
84608;SDS011;74839;51.214;22.574;2024-01-15T11:41:13;11.63;;;6.80;;
84608;SDS011;74839;51.214;22.574;2024-01-15T11:43:42;13.97;;;8.10;;
84608;SDS011;74839;51.214;22.574;2024-01-15T11:46:11;14.30;;;8.83;;
84608;SDS011;74839;51.214;22.574;2024-01-15T11:48:43;13.20;;;8.20;;
84608;SDS011;74839;51.214;22.574;2024-01-15T11:51:13;14.53;;;8.60;;
84608;SDS011;74839;51.214;22.574;2024-01-15T11:53:43;17.40;;;8.97;;
84608;SDS011;74839;51.214;22.574;2024-01-15T11:56:16;16.00;;;9.87;;
84608;SDS011;74839;51.214;22.574;2024-01-15T11:58:43;15.33;;;7.83;;
84608;SDS011;74839;51.214;22.574;2024-01-15T12:01:10;16.07;;;7.50;;
84608;SDS011;74839;51.214;22.574;2024-01-15T12:03:36;11.17;;;6.47;;
84608;SDS011;74839;51.214;22.574;2024-01-15T12:06:05;8.23;;;5.40;;
84608;SDS011;74839;51.214;22.574;2024-01-15T12:08:31;8.67;;;6.20;;
84608;SDS011;74839;51.214;22.574;2024-01-15T12:10:57;8.80;;;5.73;;
84608;SDS011;74839;51.214;22.574;2024-01-15T12:13:23;14.23;;;7.03;;
84608;SDS011;74839;51.214;22.574;2024-01-15T12:15:49;15.57;;;9.17;;
84608;SDS011;74839;51.214;22.574;2024-01-15T12:18:16;18.07;;;9.57;;
84608;SDS011;74839;51.214;22.574;2024-01-15T12:20:43;14.03;;;8.67;;
84608;SDS011;74839;51.214;22.574;2024-01-15T12:23:11;18.73;;;10.23;;
84608;SDS011;74839;51.214;22.574;2024-01-15T12:25:38;19.03;;;9.83;;
84608;SDS011;74839;51.214;22.574;2024-01-15T12:28:05;19.10;;;8.63;;
84608;SDS011;74839;51.214;22.574;2024-01-15T12:30:32;14.40;;;8.33;;
84608;SDS011;74839;51.214;22.574;2024-01-15T12:33:00;10.97;;;5.47;;
84608;SDS011;74839;51.214;22.574;2024-01-15T12:35:28;16.17;;;7.50;;
84608;SDS011;74839;51.214;22.574;2024-01-15T12:37:55;13.03;;;6.63;;
84608;SDS011;74839;51.214;22.574;2024-01-15T12:40:22;9.30;;;5.87;;
84608;SDS011;74839;51.214;22.574;2024-01-15T12:42:48;10.87;;;6.10;;
84608;SDS011;74839;51.214;22.574;2024-01-15T12:45:14;10.87;;;5.00;;
84608;SDS011;74839;51.214;22.574;2024-01-15T12:47:41;10.23;;;6.27;;
84608;SDS011;74839;51.214;22.574;2024-01-15T12:50:11;11.27;;;6.20;;
84608;SDS011;74839;51.214;22.574;2024-01-15T12:52:37;13.83;;;6.50;;
84608;SDS011;74839;51.214;22.574;2024-01-15T12:55:06;12.10;;;7.27;;
84608;SDS011;74839;51.214;22.574;2024-01-15T12:57:33;15.83;;;7.37;;
84608;SDS011;74839;51.214;22.574;2024-01-15T12:59:59;9.57;;;6.30;;
84608;SDS011;74839;51.214;22.574;2024-01-15T13:02:26;12.87;;;7.77;;
84608;SDS011;74839;51.214;22.574;2024-01-15T13:04:52;11.63;;;7.80;;
84608;SDS011;74839;51.214;22.574;2024-01-15T13:07:19;10.23;;;6.93;;
84608;SDS011;74839;51.214;22.574;2024-01-15T13:09:45;11.50;;;6.37;;
84608;SDS011;74839;51.214;22.574;2024-01-15T13:12:11;15.97;;;8.10;;
84608;SDS011;74839;51.214;22.574;2024-01-15T13:14:37;18.50;;;8.83;;
84608;SDS011;74839;51.214;22.574;2024-01-15T13:17:03;13.23;;;8.33;;
84608;SDS011;74839;51.214;22.574;2024-01-15T13:19:29;18.23;;;9.23;;
84608;SDS011;74839;51.214;22.574;2024-01-15T13:21:55;19.07;;;8.37;;
84608;SDS011;74839;51.214;22.574;2024-01-15T13:24:23;11.03;;;6.67;;
84608;SDS011;74839;51.214;22.574;2024-01-15T13:26:49;11.40;;;6.33;;
84608;SDS011;74839;51.214;22.574;2024-01-15T13:29:15;10.87;;;6.07;;
84608;SDS011;74839;51.214;22.574;2024-01-15T13:31:41;12.90;;;6.70;;
84608;SDS011;74839;51.214;22.574;2024-01-15T13:34:07;11.57;;;6.37;;
84608;SDS011;74839;51.214;22.574;2024-01-15T13:36:34;11.80;;;6.83;;
84608;SDS011;74839;51.214;22.574;2024-01-15T13:39:00;11.27;;;6.83;;
84608;SDS011;74839;51.214;22.574;2024-01-15T13:41:26;15.93;;;8.05;;
84608;SDS011;74839;51.214;22.574;2024-01-15T13:43:55;13.40;;;7.53;;
84608;SDS011;74839;51.214;22.574;2024-01-15T13:46:23;15.57;;;8.83;;
84608;SDS011;74839;51.214;22.574;2024-01-15T13:48:49;13.70;;;7.80;;
84608;SDS011;74839;51.214;22.574;2024-01-15T13:51:15;13.63;;;7.27;;
84608;SDS011;74839;51.214;22.574;2024-01-15T13:53:41;13.60;;;7.40;;
84608;SDS011;74839;51.214;22.574;2024-01-15T13:56:07;17.20;;;8.57;;
84608;SDS011;74839;51.214;22.574;2024-01-15T13:58:35;13.80;;;8.03;;
84608;SDS011;74839;51.214;22.574;2024-01-15T14:01:01;14.17;;;7.80;;
84608;SDS011;74839;51.214;22.574;2024-01-15T14:03:29;17.17;;;8.33;;
84608;SDS011;74839;51.214;22.574;2024-01-15T14:05:55;14.77;;;7.50;;
84608;SDS011;74839;51.214;22.574;2024-01-15T14:08:21;17.57;;;8.50;;
84608;SDS011;74839;51.214;22.574;2024-01-15T14:10:47;14.07;;;8.17;;
84608;SDS011;74839;51.214;22.574;2024-01-15T14:13:13;17.17;;;9.20;;
84608;SDS011;74839;51.214;22.574;2024-01-15T14:15:39;17.10;;;9.27;;
84608;SDS011;74839;51.214;22.574;2024-01-15T14:18:05;18.53;;;9.53;;
84608;SDS011;74839;51.214;22.574;2024-01-15T14:20:32;22.67;;;9.57;;